Time;durP1;ratioP1;P1;durP2;ratioP2;P2;SDS_P1;SDS_P2;PMS_P1;PMS_P2;Temp;Humidity;BMP_temperature;BMP_pressure;BME280_temperature;BME280_humidity;BME280_pressure;Samples;Min_cycle;Max_cycle;Signal;HPM_P1;HPM_P2
2024/01/21 00:01:07;;;;;;;18.37;10.47;;;;;;;;;;5021767;28;88161;-65
2024/01/21 00:03:36;;;;;;;13.50;9.63;;;;;;;;;;5021612;28;90360;-65
2024/01/21 00:06:04;;;;;;;15.00;9.53;;;;;;;;;;5022777;28;88013;-66
2024/01/21 00:08:33;;;;;;;14.77;9.97;;;;;;;;;;5017913;28;88948;-66
2024/01/21 00:11:01;;;;;;;15.90;9.37;;;;;;;;;;5021996;28;87125;-66
2024/01/21 00:13:29;;;;;;;15.90;8.33;;;;;;;;;;5022946;28;89371;-66
2024/01/21 00:15:59;;;;;;;19.83;9.70;;;;;;;;;;5021958;28;89092;-65
2024/01/21 00:18:27;;;;;;;15.27;8.90;;;;;;;;;;5019650;28;87863;-66
2024/01/21 00:20:56;;;;;;;14.37;10.33;;;;;;;;;;5020059;28;88269;-65
2024/01/21 00:23:24;;;;;;;16.63;9.27;;;;;;;;;;5016661;28;89995;-66
2024/01/21 00:25:53;;;;;;;15.17;10.03;;;;;;;;;;5016430;28;89953;-66
2024/01/21 00:28:21;;;;;;;14.13;9.30;;;;;;;;;;5017281;28;89777;-65
2024/01/21 00:30:49;;;;;;;13.97;9.37;;;;;;;;;;5019484;28;87622;-65
2024/01/21 00:33:20;;;;;;;15.97;8.57;;;;;;;;;;5017052;28;89713;-65
2024/01/21 00:35:48;;;;;;;15.40;10.03;;;;;;;;;;5015843;28;89244;-65
2024/01/21 00:38:17;;;;;;;16.97;9.13;;;;;;;;;;5021655;28;88802;-65
2024/01/21 00:40:45;;;;;;;17.63;9.33;;;;;;;;;;5018058;28;87655;-65
2024/01/21 00:43:13;;;;;;;13.53;8.77;;;;;;;;;;5018223;28;89644;-65
2024/01/21 00:45:41;;;;;;;15.73;9.37;;;;;;;;;;5014256;28;89046;-65
2024/01/21 00:48:10;;;;;;;9.90;7.97;;;;;;;;;;5018527;28;87712;-65
2024/01/21 00:50:40;;;;;;;14.40;7.17;;;;;;;;;;5021093;28;87851;-65
2024/01/21 00:53:08;;;;;;;13.33;8.17;;;;;;;;;;5021424;28;89842;-65
2024/01/21 00:55:36;;;;;;;11.33;7.10;;;;;;;;;;5021770;28;89081;-65
2024/01/21 00:58:05;;;;;;;16.47;7.67;;;;;;;;;;5019477;28;88808;-65
2024/01/21 01:00:33;;;;;;;14.13;8.23;;;;;;;;;;5002267;28;87625;-65
2024/01/21 01:03:01;;;;;;;14.00;8.40;;;;;;;;;;5017496;28;88675;-65
2024/01/21 01:05:30;;;;;;;8.60;5.47;;;;;;;;;;5021240;28;88750;-65
2024/01/21 01:08:00;;;;;;;8.63;5.47;;;;;;;;;;5020695;28;88842;-65
2024/01/21 01:10:28;;;;;;;7.53;5.17;;;;;;;;;;5021005;28;88168;-65
2024/01/21 01:12:58;;;;;;;7.03;5.87;;;;;;;;;;5020728;28;89605;-66
2024/01/21 01:15:26;;;;;;;13.43;5.23;;;;;;;;;;5019757;28;90287;-65
2024/01/21 01:17:55;;;;;;;7.10;5.07;;;;;;;;;;5020771;28;89900;-64
2024/01/21 01:20:23;;;;;;;6.70;3.67;;;;;;;;;;5021601;28;87620;-65
2024/01/21 01:22:51;;;;;;;4.63;3.73;;;;;;;;;;5020458;28;89583;-65
2024/01/21 01:25:21;;;;;;;5.10;3.73;;;;;;;;;;5020746;28;89189;-65
2024/01/21 01:27:49;;;;;;;6.70;4.63;;;;;;;;;;5020824;28;88752;-65
2024/01/21 01:30:18;;;;;;;6.70;4.17;;;;;;;;;;5021560;28;87509;-65
2024/01/21 01:32:46;;;;;;;6.37;3.37;;;;;;;;;;5020990;28;89567;-64
2024/01/21 01:35:15;;;;;;;5.87;4.07;;;;;;;;;;5021083;28;89141;-65
2024/01/21 01:37:43;;;;;;;4.23;2.93;;;;;;;;;;5021457;28;88865;-65
2024/01/21 01:40:17;;;;;;;5.13;3.73;;;;;;;;;;5019015;28;87947;-65
2024/01/21 01:42:47;;;;;;;4.80;2.90;;;;;;;;;;5020826;28;89631;-65
2024/01/21 01:45:15;;;;;;;3.60;2.43;;;;;;;;;;5021069;28;87846;-65
2024/01/21 01:47:43;;;;;;;6.50;3.80;;;;;;;;;;5020604;28;89249;-65
2024/01/21 01:50:12;;;;;;;4.43;3.00;;;;;;;;;;5021523;28;87471;-65
2024/01/21 01:52:41;;;;;;;4.40;3.30;;;;;;;;;;5020323;28;89698;-65
2024/01/21 01:55:09;;;;;;;2.70;2.50;;;;;;;;;;5021200;28;89063;-65
2024/01/21 01:57:38;;;;;;;4.20;2.57;;;;;;;;;;5019963;28;88870;-65
2024/01/21 02:00:08;;;;;;;5.50;3.03;;;;;;;;;;5020855;28;87567;-65
2024/01/21 02:02:36;;;;;;;4.40;2.57;;;;;;;;;;5020620;28;89791;-65
2024/01/21 02:05:05;;;;;;;2.43;2.20;;;;;;;;;;5020164;28;89996;-65
2024/01/21 02:07:33;;;;;;;5.47;2.37;;;;;;;;;;5020725;28;89852;-65
2024/01/21 02:10:02;;;;;;;2.80;2.50;;;;;;;;;;5020787;28;87652;-65
2024/01/21 02:12:30;;;;;;;2.33;1.93;;;;;;;;;;5020311;28;89379;-65
2024/01/21 02:14:59;;;;;;;3.27;2.30;;;;;;;;;;5020152;28;89170;-65
2024/01/21 02:17:29;;;;;;;3.70;2.60;;;;;;;;;;5020513;28;88900;-65
2024/01/21 02:19:57;;;;;;;2.73;2.00;;;;;;;;;;5020662;28;87612;-65
2024/01/21 02:22:25;;;;;;;1.97;1.80;;;;;;;;;;5019063;28;89652;-64
2024/01/21 02:24:55;;;;;;;2.40;2.20;;;;;;;;;;5018927;28;89010;-64
2024/01/21 02:27:23;;;;;;;3.40;2.67;;;;;;;;;;5019316;28;88896;-65
2024/01/21 02:29:52;;;;;;;2.07;1.87;;;;;;;;;;5016303;28;88085;-64
2024/01/21 02:32:20;;;;;;;2.23;1.53;;;;;;;;;;5014476;28;88602;-65
2024/01/21 02:34:48;;;;;;;4.70;2.30;;;;;;;;;;5012407;28;89114;-65
2024/01/21 02:37:17;;;;;;;1.87;1.77;;;;;;;;;;5017643;28;88643;-64
2024/01/21 02:39:45;;;;;;;2.77;2.07;;;;;;;;;;5017017;28;87702;-65
2024/01/21 02:42:15;;;;;;;1.87;1.77;;;;;;;;;;5019402;28;89326;-65
2024/01/21 02:44:44;;;;;;;4.17;1.97;;;;;;;;;;5019239;28;89151;-64
2024/01/21 02:47:12;;;;;;;4.80;2.73;;;;;;;;;;5019723;28;88907;-65
2024/01/21 02:49:40;;;;;;;3.97;2.27;;;;;;;;;;5019609;28;87770;-65
2024/01/21 02:52:09;;;;;;;3.03;2.10;;;;;;;;;;5018849;28;89640;-65
2024/01/21 02:54:37;;;;;;;3.03;1.93;;;;;;;;;;5018988;28;90081;-64
2024/01/21 02:57:05;;;;;;;2.73;2.30;;;;;;;;;;5015912;28;89478;-65
2024/01/21 02:59:35;;;;;;;1.90;1.77;;;;;;;;;;5011426;28;88347;-65
2024/01/21 03:02:03;;;;;;;2.37;1.70;;;;;;;;;;5019380;28;89714;-64
2024/01/21 03:04:32;;;;;;;2.10;1.90;;;;;;;;;;5018961;28;89178;-65
2024/01/21 03:07:00;;;;;;;5.33;2.07;;;;;;;;;;5015081;28;88856;-65
2024/01/21 03:09:28;;;;;;;4.47;2.63;;;;;;;;;;5019623;28;87619;-64
2024/01/21 03:11:57;;;;;;;2.57;2.00;;;;;;;;;;5019634;28;89659;-64
2024/01/21 03:14:25;;;;;;;2.77;1.67;;;;;;;;;;5016133;28;89174;-64
2024/01/21 03:16:55;;;;;;;2.27;1.60;;;;;;;;;;5019188;28;88794;-65
2024/01/21 03:19:23;;;;;;;5.90;1.50;;;;;;;;;;5018800;28;87854;-65
2024/01/21 03:21:51;;;;;;;4.13;2.00;;;;;;;;;;5018993;28;89716;-64
2024/01/21 03:24:20;;;;;;;3.27;1.97;;;;;;;;;;5019430;28;89188;-64
2024/01/21 03:26:48;;;;;;;1.70;1.60;;;;;;;;;;5019179;28;88885;-65
2024/01/21 03:29:17;;;;;;;1.93;1.40;;;;;;;;;;5019017;28;87638;-64
2024/01/21 03:31:45;;;;;;;3.33;1.90;;;;;;;;;;5012884;28;89533;-64
2024/01/21 03:34:15;;;;;;;2.33;1.53;;;;;;;;;;5018745;28;89170;-65
2024/01/21 03:36:43;;;;;;;3.33;1.90;;;;;;;;;;5017931;28;89068;-65
2024/01/21 03:39:12;;;;;;;3.00;1.90;;;;;;;;;;5021830;28;87718;-65
2024/01/21 03:41:40;;;;;;;3.20;2.10;;;;;;;;;;5019970;28;88535;-64
2024/01/21 03:44:08;;;;;;;1.50;1.33;;;;;;;;;;5020921;28;90095;-64
2024/01/21 03:46:37;;;;;;;3.37;1.47;;;;;;;;;;5020816;28;89826;-64
2024/01/21 03:49:05;;;;;;;1.93;1.13;;;;;;;;;;5021865;28;87777;-64
2024/01/21 03:51:35;;;;;;;1.97;1.60;;;;;;;;;;5018543;28;89764;-65
2024/01/21 03:54:03;;;;;;;1.47;1.30;;;;;;;;;;5021680;28;89417;-64
2024/01/21 03:56:31;;;;;;;3.70;2.00;;;;;;;;;;5019968;28;88854;-64
2024/01/21 03:59:00;;;;;;;2.30;1.80;;;;;;;;;;5020553;28;87695;-64
2024/01/21 04:01:28;;;;;;;2.87;1.90;;;;;;;;;;5022009;28;89572;-64
2024/01/21 04:03:56;;;;;;;1.83;1.10;;;;;;;;;;5022017;28;89483;-64
2024/01/21 04:06:25;;;;;;;7.20;2.20;;;;;;;;;;5019504;28;89175;-65
2024/01/21 04:08:55;;;;;;;2.00;1.33;;;;;;;;;;5021698;28;88245;-64
2024/01/21 04:11:23;;;;;;;2.23;1.00;;;;;;;;;;5021645;28;89627;-64
2024/01/21 04:13:51;;;;;;;2.40;1.83;;;;;;;;;;5019458;28;88010;-64
2024/01/21 04:16:20;;;;;;;2.27;1.50;;;;;;;;;;5021647;28;88800;-64
2024/01/21 04:18:48;;;;;;;2.40;0.93;;;;;;;;;;5022714;28;87671;-65
2024/01/21 04:21:16;;;;;;;2.60;0.97;;;;;;;;;;5021555;28;89598;-65
2024/01/21 04:23:45;;;;;;;1.90;1.53;;;;;;;;;;5017107;28;89294;-64
2024/01/21 04:26:15;;;;;;;3.77;1.23;;;;;;;;;;5021818;28;88678;-65
2024/01/21 04:28:43;;;;;;;1.57;1.30;;;;;;;;;;5019967;28;88284;-64
2024/01/21 04:31:11;;;;;;;1.17;1.10;;;;;;;;;;5020743;28;89789;-64
2024/01/21 04:33:40;;;;;;;2.47;1.67;;;;;;;;;;5020906;28;89992;-65
2024/01/21 04:36:09;;;;;;;1.87;1.10;;;;;;;;;;5017150;28;89946;-64
2024/01/21 04:38:37;;;;;;;1.50;1.13;;;;;;;;;;5021741;28;88588;-64
2024/01/21 04:41:06;;;;;;;2.20;1.30;;;;;;;;;;5020166;28;89738;-64
2024/01/21 04:43:35;;;;;;;3.33;1.20;;;;;;;;;;5020965;28;89134;-64
2024/01/21 04:46:04;;;;;;;2.27;2.07;;;;;;;;;;5020246;28;88712;-64
2024/01/21 04:48:32;;;;;;;1.17;1.10;;;;;;;;;;5020154;28;87643;-64
2024/01/21 04:51:01;;;;;;;1.07;0.97;;;;;;;;;;5002215;28;89874;-64
2024/01/21 04:53:29;;;;;;;1.33;1.23;;;;;;;;;;5019624;28;89267;-64
2024/01/21 04:55:58;;;;;;;1.30;1.07;;;;;;;;;;5019597;28;87749;-65
2024/01/21 04:58:26;;;;;;;1.93;1.20;;;;;;;;;;5019136;28;87967;-64
2024/01/21 05:00:56;;;;;;;3.03;1.50;;;;;;;;;;5014442;28;88529;-65
2024/01/21 05:03:24;;;;;;;1.53;0.97;;;;;;;;;;5018207;28;89074;-64
2024/01/21 05:05:53;;;;;;;1.63;1.23;;;;;;;;;;5022399;28;88998;-65
2024/01/21 05:08:21;;;;;;;2.63;1.83;;;;;;;;;;5019699;28;87737;-65
2024/01/21 05:10:49;;;;;;;1.50;0.90;;;;;;;;;;5020934;28;89520;-64
2024/01/21 05:13:18;;;;;;;2.50;1.10;;;;;;;;;;5019967;28;89115;-64
2024/01/21 05:15:47;;;;;;;2.27;0.80;;;;;;;;;;5021705;28;88786;-64
2024/01/21 05:18:19;;;;;;;1.03;0.97;;;;;;;;;;5019280;28;87799;-65
2024/01/21 05:20:47;;;;;;;1.00;0.90;;;;;;;;;;5021548;28;89848;-65
2024/01/21 05:23:15;;;;;;;2.13;0.83;;;;;;;;;;5018754;28;90063;-64
2024/01/21 05:25:45;;;;;;;2.47;0.90;;;;;;;;;;5020035;28;90097;-64
2024/01/21 05:28:13;;;;;;;1.30;0.80;;;;;;;;;;5020859;28;87649;-65
2024/01/21 05:30:41;;;;;;;0.90;0.90;;;;;;;;;;5021269;28;89652;-64
2024/01/21 05:33:10;;;;;;;1.60;1.07;;;;;;;;;;5020010;28;89233;-65
2024/01/21 05:35:39;;;;;;;3.80;1.00;;;;;;;;;;5018493;28;88853;-64
2024/01/21 05:38:08;;;;;;;1.17;0.83;;;;;;;;;;5019237;28;89141;-64
2024/01/21 05:40:36;;;;;;;0.80;0.77;;;;;;;;;;5020533;28;89611;-64
2024/01/21 05:43:05;;;;;;;0.63;0.63;;;;;;;;;;5020177;28;89152;-64
2024/01/21 05:45:33;;;;;;;1.63;0.93;;;;;;;;;;5018523;28;87717;-64
2024/01/21 05:48:01;;;;;;;1.97;1.07;;;;;;;;;;5020283;28;87850;-64
2024/01/21 05:50:30;;;;;;;0.80;0.70;;;;;;;;;;5018841;28;89726;-64
2024/01/21 05:52:59;;;;;;;0.87;0.70;;;;;;;;;;5019605;28;89101;-64
2024/01/21 05:55:28;;;;;;;1.83;0.83;;;;;;;;;;5020461;28;88834;-64
2024/01/21 05:57:56;;;;;;;1.87;0.70;;;;;;;;;;5019410;28;87500;-65
2024/01/21 06:00:24;;;;;;;0.67;0.57;;;;;;;;;;5018696;28;89717;-64
2024/01/21 06:02:53;;;;;;;1.33;1.23;;;;;;;;;;5019141;28;89459;-64
2024/01/21 06:05:22;;;;;;;2.30;1.13;;;;;;;;;;5019522;28;89117;-64
2024/01/21 06:07:50;;;;;;;0.97;0.93;;;;;;;;;;5020206;28;87572;-64
2024/01/21 06:10:20;;;;;;;4.20;1.10;;;;;;;;;;5019584;28;89763;-64
2024/01/21 06:12:48;;;;;;;1.07;0.97;;;;;;;;;;5015744;28;89985;-64
2024/01/21 06:15:16;;;;;;;0.70;0.70;;;;;;;;;;5019647;28;89515;-64
2024/01/21 06:17:45;;;;;;;1.27;1.07;;;;;;;;;;5015281;28;88037;-64
2024/01/21 06:20:13;;;;;;;0.70;0.50;;;;;;;;;;5019436;28;89630;-64
2024/01/21 06:22:41;;;;;;;1.27;1.17;;;;;;;;;;5016543;28;89247;-64
2024/01/21 06:25:11;;;;;;;1.30;1.20;;;;;;;;;;5019350;28;88777;-64
2024/01/21 06:27:41;;;;;;;4.00;1.70;;;;;;;;;;5019052;28;87636;-64
2024/01/21 06:30:13;;;;;;;2.70;1.70;;;;;;;;;;5018838;28;91840;-64
2024/01/21 06:32:42;;;;;;;2.27;1.97;;;;;;;;;;5017503;28;89105;-64
2024/01/21 06:35:27;;;;;;;1.57;1.47;;;;;;;;;;5019248;28;88914;-64
2024/01/21 06:37:56;;;;;;;4.10;1.93;;;;;;;;;;5011951;28;88917;-64
2024/01/21 06:40:25;;;;;;;2.47;2.07;;;;;;;;;;5019486;28;89589;-64
2024/01/21 06:42:54;;;;;;;3.33;1.90;;;;;;;;;;5012600;28;89196;-64
2024/01/21 06:45:26;;;;;;;2.87;1.70;;;;;;;;;;5018878;28;87682;-64
2024/01/21 06:47:54;;;;;;;3.93;2.10;;;;;;;;;;5018951;28;87624;-64
2024/01/21 06:50:27;;;;;;;2.50;1.90;;;;;;;;;;5019528;28;88437;-64
2024/01/21 06:52:56;;;;;;;2.73;2.00;;;;;;;;;;5017726;28;89969;-64
2024/01/21 06:55:24;;;;;;;3.77;2.03;;;;;;;;;;5018563;28;89035;-64
2024/01/21 06:57:54;;;;;;;2.90;1.97;;;;;;;;;;5011212;28;87779;-64
2024/01/21 07:00:26;;;;;;;2.47;2.03;;;;;;;;;;5017358;28;89810;-64
2024/01/21 07:02:55;;;;;;;2.13;1.63;;;;;;;;;;5018275;28;90098;-64
2024/01/21 07:05:23;;;;;;;2.07;1.60;;;;;;;;;;5017909;28;89517;-64
2024/01/21 07:07:56;;;;;;;1.60;1.50;;;;;;;;;;5016756;28;87604;-64
2024/01/21 07:10:25;;;;;;;3.97;1.97;;;;;;;;;;5016989;28;89597;-64
2024/01/21 07:12:56;;;;;;;4.13;2.00;;;;;;;;;;5020143;28;89265;-64
2024/01/21 07:15:25;;;;;;;2.57;1.70;;;;;;;;;;5020274;28;87732;-64
2024/01/21 07:17:54;;;;;;;5.37;2.50;;;;;;;;;;5020674;28;87596;-64
2024/01/21 07:20:22;;;;;;;3.37;2.43;;;;;;;;;;5022642;28;87219;-64
2024/01/21 07:22:50;;;;;;;3.33;2.13;;;;;;;;;;5020300;28;89480;-64
2024/01/21 07:25:19;;;;;;;3.23;2.10;;;;;;;;;;5017730;28;88832;-64
2024/01/21 07:27:47;;;;;;;3.60;1.90;;;;;;;;;;5021852;28;88059;-64
2024/01/21 07:30:19;;;;;;;2.17;1.50;;;;;;;;;;5021451;28;89728;-63
2024/01/21 07:32:47;;;;;;;3.77;2.03;;;;;;;;;;5019804;28;89145;-64
2024/01/21 07:35:20;;;;;;;2.37;2.17;;;;;;;;;;5022475;28;88795;-64
2024/01/21 07:37:48;;;;;;;3.50;2.40;;;;;;;;;;5021442;28;87721;-64
2024/01/21 07:40:16;;;;;;;2.90;1.70;;;;;;;;;;5020457;28;89614;-64
2024/01/21 07:42:45;;;;;;;2.23;1.50;;;;;;;;;;5021329;28;89229;-65
2024/01/21 07:45:13;;;;;;;3.13;1.87;;;;;;;;;;5022203;28;88582;-64
2024/01/21 07:47:43;;;;;;;2.70;1.93;;;;;;;;;;5022495;28;87566;-64
2024/01/21 07:50:11;;;;;;;1.83;1.23;;;;;;;;;;5022385;28;89632;-64
2024/01/21 07:52:40;;;;;;;1.90;1.63;;;;;;;;;;5018247;28;89819;-64
2024/01/21 07:55:08;;;;;;;1.67;1.57;;;;;;;;;;5020675;28;89822;-64
2024/01/21 07:57:40;;;;;;;2.73;2.00;;;;;;;;;;5021261;28;87202;-63
2024/01/21 08:00:10;;;;;;;1.13;1.00;;;;;;;;;;5022192;28;88503;-64
2024/01/21 08:02:38;;;;;;;2.67;1.47;;;;;;;;;;5021401;28;87964;-64
2024/01/21 08:05:08;;;;;;;3.03;1.33;;;;;;;;;;5019690;28;87717;-64
2024/01/21 08:07:37;;;;;;;4.17;1.90;;;;;;;;;;5009592;28;87609;-64
2024/01/21 08:10:06;;;;;;;3.10;1.43;;;;;;;;;;5019477;28;89689;-64
2024/01/21 08:12:34;;;;;;;3.90;1.73;;;;;;;;;;5020736;28;88980;-64
2024/01/21 08:15:03;;;;;;;6.00;2.00;;;;;;;;;;5020860;28;88850;-64
2024/01/21 08:17:32;;;;;;;4.37;2.63;;;;;;;;;;5019029;28;88840;-64
2024/01/21 08:20:00;;;;;;;2.97;2.03;;;;;;;;;;5021698;28;89122;-64
2024/01/21 08:22:30;;;;;;;3.27;1.80;;;;;;;;;;5020818;28;89050;-64
2024/01/21 08:24:58;;;;;;;2.77;1.80;;;;;;;;;;5021362;28;88655;-64
2024/01/21 08:27:27;;;;;;;3.60;1.90;;;;;;;;;;5019351;28;87630;-64
2024/01/21 08:29:55;;;;;;;2.13;1.40;;;;;;;;;;5019909;28;89707;-64
2024/01/21 08:32:24;;;;;;;1.70;1.60;;;;;;;;;;5017093;28;89004;-64
2024/01/21 08:34:52;;;;;;;1.23;1.13;;;;;;;;;;5020315;28;87737;-64
2024/01/21 08:37:20;;;;;;;1.37;1.27;;;;;;;;;;5020009;28;87807;-64
2024/01/21 08:39:50;;;;;;;2.50;1.53;;;;;;;;;;5018428;28;89731;-64
2024/01/21 08:42:19;;;;;;;1.67;1.43;;;;;;;;;;5019518;28;89955;-64
2024/01/21 08:44:48;;;;;;;2.47;1.40;;;;;;;;;;5019394;28;89906;-64
2024/01/21 08:47:16;;;;;;;4.27;1.93;;;;;;;;;;5020530;28;88264;-64
2024/01/21 08:49:44;;;;;;;2.67;2.10;;;;;;;;;;5016144;28;88533;-64
2024/01/21 08:52:13;;;;;;;2.97;1.40;;;;;;;;;;5019519;28;88891;-64
2024/01/21 08:54:41;;;;;;;2.57;1.87;;;;;;;;;;5020834;28;88816;-64
2024/01/21 08:57:11;;;;;;;1.43;1.33;;;;;;;;;;5014119;28;87649;-64
2024/01/21 08:59:39;;;;;;;2.93;1.83;;;;;;;;;;5017853;28;90253;-64
2024/01/21 09:02:08;;;;;;;2.33;1.57;;;;;;;;;;5018080;28;88195;-64
2024/01/21 09:04:36;;;;;;;1.70;1.60;;;;;;;;;;5020251;28;87634;-64
2024/01/21 09:07:05;;;;;;;2.07;1.40;;;;;;;;;;5019318;28;87985;-64
2024/01/21 09:09:35;;;;;;;4.43;2.40;;;;;;;;;;5018069;28;89493;-64
2024/01/21 09:12:04;;;;;;;2.30;2.03;;;;;;;;;;5017088;28;89181;-64
2024/01/21 09:14:41;;;;;;;2.40;1.90;;;;;;;;;;5019907;28;88724;-64
2024/01/21 09:17:09;;;;;;;4.07;2.03;;;;;;;;;;5019729;28;87476;-64
2024/01/21 09:19:37;;;;;;;3.20;1.43;;;;;;;;;;5016787;28;89703;-64
2024/01/21 09:22:06;;;;;;;2.37;2.17;;;;;;;;;;5017776;28;88964;-64
2024/01/21 09:24:34;;;;;;;2.53;2.03;;;;;;;;;;5019758;28;88987;-64
2024/01/21 09:27:02;;;;;;;2.07;1.50;;;;;;;;;;5017535;28;88702;-64
2024/01/21 09:29:31;;;;;;;3.63;1.97;;;;;;;;;;5018874;28;89595;-64
2024/01/21 09:32:02;;;;;;;3.00;2.00;;;;;;;;;;5018376;28;90088;-64
2024/01/21 09:34:31;;;;;;;2.17;1.53;;;;;;;;;;5019634;28;89846;-64
2024/01/21 09:36:59;;;;;;;1.60;1.50;;;;;;;;;;5020359;28;87633;-64
2024/01/21 09:39:28;;;;;;;2.27;1.73;;;;;;;;;;5019877;28;89711;-64
2024/01/21 09:41:57;;;;;;;2.63;1.70;;;;;;;;;;5019024;28;87976;-64
2024/01/21 09:44:26;;;;;;;1.87;1.77;;;;;;;;;;5015627;28;88881;-64
2024/01/21 09:46:56;;;;;;;2.77;2.23;;;;;;;;;;5020023;28;87315;-64
2024/01/21 09:49:26;;;;;;;2.30;1.77;;;;;;;;;;5019977;28;89493;-64
2024/01/21 09:51:55;;;;;;;1.83;1.63;;;;;;;;;;5019903;28;89075;-64
2024/01/21 09:54:24;;;;;;;2.60;1.40;;;;;;;;;;5018799;28;88853;-64
2024/01/21 09:56:53;;;;;;;1.70;1.60;;;;;;;;;;5019408;28;87966;-64
2024/01/21 09:59:21;;;;;;;3.47;1.67;;;;;;;;;;5019041;28;89690;-64
2024/01/21 10:01:49;;;;;;;2.40;1.37;;;;;;;;;;5019318;28;89106;-64
2024/01/21 10:04:20;;;;;;;3.47;2.00;;;;;;;;;;5019880;28;88840;-64
2024/01/21 10:06:51;;;;;;;6.67;1.67;;;;;;;;;;5018170;28;87327;-64
2024/01/21 10:09:21;;;;;;;1.40;1.33;;;;;;;;;;5019469;28;89598;-64
2024/01/21 10:11:50;;;;;;;2.03;1.40;;;;;;;;;;5017713;28;89005;-65
2024/01/21 10:14:18;;;;;;;1.83;1.70;;;;;;;;;;5019532;28;88740;-64
2024/01/21 10:16:47;;;;;;;3.70;1.73;;;;;;;;;;5019684;28;87804;-64
2024/01/21 10:19:15;;;;;;;1.80;1.70;;;;;;;;;;5019419;28;89612;-64
2024/01/21 10:21:44;;;;;;;2.00;1.83;;;;;;;;;;5018511;28;90471;-64
2024/01/21 10:24:14;;;;;;;2.23;1.73;;;;;;;;;;5019140;28;89796;-64
2024/01/21 10:26:43;;;;;;;3.27;1.93;;;;;;;;;;5019222;28;87645;-63
2024/01/21 10:29:11;;;;;;;2.00;1.73;;;;;;;;;;5017765;28;89709;-63
2024/01/21 10:31:39;;;;;;;1.97;1.40;;;;;;;;;;5019011;28;89116;-64
2024/01/21 10:34:09;;;;;;;1.70;1.60;;;;;;;;;;5019117;28;87709;-64
2024/01/21 10:36:38;;;;;;;1.43;1.27;;;;;;;;;;5019496;28;87572;-64
2024/01/21 10:39:08;;;;;;;2.20;2.00;;;;;;;;;;5018715;28;89708;-64
2024/01/21 10:41:38;;;;;;;2.30;1.63;;;;;;;;;;5018495;28;89168;-64
2024/01/21 10:44:07;;;;;;;1.77;1.50;;;;;;;;;;5018901;28;88779;-64
2024/01/21 10:46:37;;;;;;;2.50;1.23;;;;;;;;;;5014847;28;89438;-63
2024/01/21 10:49:06;;;;;;;1.37;1.27;;;;;;;;;;5020242;28;89610;-63
2024/01/21 10:51:34;;;;;;;2.00;1.57;;;;;;;;;;5018355;28;89122;-63
2024/01/21 10:54:03;;;;;;;2.23;2.03;;;;;;;;;;5020328;28;88837;-62
2024/01/21 10:56:31;;;;;;;2.10;1.73;;;;;;;;;;5022851;28;87491;-63
2024/01/21 10:59:02;;;;;;;2.17;1.47;;;;;;;;;;5022115;28;89855;-65
2024/01/21 11:01:30;;;;;;;2.07;1.87;;;;;;;;;;5022582;28;87924;-64
2024/01/21 11:04:08;;;;;;;3.43;1.10;;;;;;;;;;5022383;28;88985;-64
2024/01/21 11:06:41;;;;;;;4.53;2.13;;;;;;;;;;5019663;28;87659;-64
2024/01/21 11:09:09;;;;;;;1.63;1.30;;;;;;;;;;5017795;28;88438;-64
2024/01/21 11:11:42;;;;;;;2.63;1.03;;;;;;;;;;5021707;28;90016;-64
2024/01/21 11:14:27;;;;;;;6.07;1.63;;;;;;;;;;5020978;28;89920;-64
2024/01/21 11:17:03;;;;;;;2.17;1.80;;;;;;;;;;5021786;28;87570;-64
2024/01/21 11:19:33;;;;;;;1.30;1.20;;;;;;;;;;5022232;28;90126;-64
2024/01/21 11:22:04;;;;;;;1.93;1.80;;;;;;;;;;5021150;28;89121;-65
2024/01/21 11:24:33;;;;;;;1.47;1.00;;;;;;;;;;5022861;28;88730;-65
2024/01/21 11:27:01;;;;;;;2.63;1.77;;;;;;;;;;5018321;28;88009;-64
2024/01/21 11:29:32;;;;;;;3.10;1.10;;;;;;;;;;5016924;28;89526;-64
2024/01/21 11:32:02;;;;;;;3.50;1.83;;;;;;;;;;5018980;28;89141;-65
2024/01/21 11:34:31;;;;;;;1.77;1.10;;;;;;;;;;5018333;28;87769;-64
2024/01/21 11:36:59;;;;;;;1.80;1.40;;;;;;;;;;5015775;28;89697;-64
2024/01/21 11:39:28;;;;;;;2.37;1.60;;;;;;;;;;5018110;28;89688;-64
2024/01/21 11:41:57;;;;;;;2.33;1.07;;;;;;;;;;5014657;28;89106;-65
2024/01/21 11:44:26;;;;;;;1.23;0.93;;;;;;;;;;5009676;28;89705;-64
2024/01/21 11:46:58;;;;;;;2.00;1.43;;;;;;;;;;5017293;28;87592;-64
2024/01/21 11:49:29;;;;;;;1.40;1.20;;;;;;;;;;5019482;28;89695;-64
2024/01/21 11:51:58;;;;;;;3.33;1.30;;;;;;;;;;5018743;28;89080;-64
2024/01/21 11:54:26;;;;;;;1.83;1.03;;;;;;;;;;5016737;28;88903;-64
2024/01/21 11:56:54;;;;;;;2.17;1.73;;;;;;;;;;5018747;28;87518;-64
2024/01/21 11:59:23;;;;;;;1.23;1.13;;;;;;;;;;5005313;28;89709;-64
2024/01/21 12:01:51;;;;;;;2.07;1.40;;;;;;;;;;5016553;28;90297;-64
2024/01/21 12:04:20;;;;;;;2.73;1.40;;;;;;;;;;5013719;28;89878;-65
2024/01/21 12:06:51;;;;;;;1.40;1.30;;;;;;;;;;5015082;28;87646;-64
2024/01/21 12:09:19;;;;;;;2.17;1.67;;;;;;;;;;5012820;28;88587;-65
2024/01/21 12:11:50;;;;;;;1.03;1.00;;;;;;;;;;5014736;28;88906;-64
2024/01/21 12:14:18;;;;;;;2.67;1.90;;;;;;;;;;5015536;28;87640;-65
2024/01/21 12:16:50;;;;;;;3.77;1.90;;;;;;;;;;5009964;28;89949;-64
2024/01/21 12:19:18;;;;;;;4.27;1.80;;;;;;;;;;5017628;28;89648;-65
2024/01/21 12:21:47;;;;;;;3.20;2.10;;;;;;;;;;5010170;28;89292;-64
2024/01/21 12:24:17;;;;;;;2.87;2.40;;;;;;;;;;5014619;28;88868;-65
2024/01/21 12:26:48;;;;;;;3.47;2.27;;;;;;;;;;5009692;28;88921;-64
2024/01/21 12:29:18;;;;;;;2.47;1.83;;;;;;;;;;5012093;28;89619;-65
2024/01/21 12:31:46;;;;;;;4.33;2.37;;;;;;;;;;5013276;28;89202;-65
2024/01/21 12:34:14;;;;;;;3.07;2.53;;;;;;;;;;5015113;28;88956;-65
2024/01/21 12:36:45;;;;;;;2.67;2.47;;;;;;;;;;5012667;28;88095;-64
2024/01/21 12:39:14;;;;;;;5.13;2.83;;;;;;;;;;5018205;28;88681;-65
2024/01/21 12:41:44;;;;;;;4.33;3.30;;;;;;;;;;5017507;28;89237;-65
2024/01/21 12:44:12;;;;;;;3.90;2.80;;;;;;;;;;5019236;28;89555;-65
2024/01/21 12:46:42;;;;;;;2.97;2.60;;;;;;;;;;5016431;28;87438;-65
2024/01/21 12:49:12;;;;;;;4.33;3.20;;;;;;;;;;5018545;28;89846;-65
2024/01/21 12:51:42;;;;;;;5.57;3.73;;;;;;;;;;5015121;28;90203;-65
2024/01/21 12:54:11;;;;;;;6.67;3.50;;;;;;;;;;5017729;28;89825;-65
2024/01/21 12:56:41;;;;;;;4.60;3.43;;;;;;;;;;5014899;28;88086;-64
2024/01/21 12:59:13;;;;;;;4.53;3.23;;;;;;;;;;5017543;28;89863;-65
2024/01/21 13:01:42;;;;;;;4.97;3.77;;;;;;;;;;5016655;28;89174;-65
2024/01/21 13:04:10;;;;;;;5.77;3.83;;;;;;;;;;5018247;28;87833;-65
2024/01/21 13:06:40;;;;;;;6.43;4.10;;;;;;;;;;5015063;28;87607;-65
2024/01/21 13:09:08;;;;;;;6.30;4.67;;;;;;;;;;5016354;28;89342;-65
2024/01/21 13:11:37;;;;;;;9.00;3.93;;;;;;;;;;5014554;28;88025;-65
2024/01/21 13:14:05;;;;;;;8.13;4.10;;;;;;;;;;5016913;28;88877;-66
2024/01/21 13:16:37;;;;;;;4.70;3.73;;;;;;;;;;5016965;28;88111;-65
2024/01/21 13:19:06;;;;;;;7.67;4.60;;;;;;;;;;5016272;28;89751;-65
2024/01/21 13:21:35;;;;;;;5.37;3.93;;;;;;;;;;5016410;28;87965;-65
2024/01/21 13:24:03;;;;;;;7.40;4.33;;;;;;;;;;5017894;28;88875;-66
2024/01/21 13:26:31;;;;;;;9.80;4.13;;;;;;;;;;5015416;28;87670;-65
2024/01/21 13:31:48;;;;;;;6.70;3.53;;;;;;;;;;5012768;28;89498;-64
2024/01/21 13:34:17;;;;;;;5.00;3.77;;;;;;;;;;5012843;28;88765;-64
2024/01/21 13:36:47;;;;;;;6.93;4.23;;;;;;;;;;5014415;28;87360;-65
2024/01/21 13:39:16;;;;;;;5.60;3.93;;;;;;;;;;5017357;28;89647;-64
2024/01/21 13:41:44;;;;;;;11.67;4.77;;;;;;;;;;5017041;28;90442;-65
2024/01/21 13:44:13;;;;;;;7.87;3.80;;;;;;;;;;5001368;28;89836;-65
2024/01/21 13:46:41;;;;;;;5.80;3.30;;;;;;;;;;5018183;28;88170;-65
2024/01/21 13:49:11;;;;;;;5.10;3.73;;;;;;;;;;5017902;28;89688;-64
2024/01/21 13:51:39;;;;;;;5.97;3.63;;;;;;;;;;5013196;28;89226;-64
2024/01/21 13:54:08;;;;;;;7.33;4.10;;;;;;;;;;5014660;28;89051;-65
2024/01/21 13:56:36;;;;;;;5.93;4.07;;;;;;;;;;5017619;28;88112;-65
2024/01/21 13:59:04;;;;;;;6.87;3.60;;;;;;;;;;5017227;28;89623;-65
2024/01/21 14:01:33;;;;;;;6.07;4.10;;;;;;;;;;5014695;28;89077;-64
2024/01/21 14:04:02;;;;;;;5.30;3.30;;;;;;;;;;5017601;28;87679;-65
2024/01/21 14:06:32;;;;;;;6.67;3.80;;;;;;;;;;5013055;28;88063;-65
2024/01/21 14:09:00;;;;;;;4.37;2.73;;;;;;;;;;5010864;28;89609;-64
2024/01/21 14:11:28;;;;;;;6.43;4.77;;;;;;;;;;5012188;28;89392;-64
2024/01/21 14:13:57;;;;;;;5.67;3.47;;;;;;;;;;5013854;28;88834;-65
2024/01/21 14:16:25;;;;;;;6.50;3.67;;;;;;;;;;5013964;28;87636;-65
2024/01/21 14:18:55;;;;;;;5.03;3.90;;;;;;;;;;5016982;28;89692;-66
2024/01/21 14:21:24;;;;;;;5.77;4.10;;;;;;;;;;5013067;28;88107;-65
2024/01/21 14:23:53;;;;;;;5.17;3.73;;;;;;;;;;5013852;28;88881;-64
2024/01/21 14:26:25;;;;;;;5.57;3.67;;;;;;;;;;5004013;28;87556;-64
2024/01/21 14:28:54;;;;;;;4.73;3.23;;;;;;;;;;5013841;28;89572;-65
2024/01/21 14:31:22;;;;;;;7.47;4.50;;;;;;;;;;5016394;28;90095;-65
2024/01/21 14:33:50;;;;;;;4.97;2.90;;;;;;;;;;5030116;28;89653;-65
2024/01/21 14:36:19;;;;;;;7.23;3.70;;;;;;;;;;5036744;28;87656;-65
2024/01/21 14:38:47;;;;;;;4.77;2.97;;;;;;;;;;5036863;28;88314;-65
2024/01/21 14:41:17;;;;;;;6.97;3.20;;;;;;;;;;5017903;28;89370;-65
2024/01/21 14:43:45;;;;;;;5.13;3.10;;;;;;;;;;5015885;28;89140;-65
2024/01/21 14:46:14;;;;;;;5.30;2.93;;;;;;;;;;5017153;28;87484;-65
2024/01/21 14:48:42;;;;;;;7.03;3.17;;;;;;;;;;5015983;28;89577;-65
2024/01/21 14:51:11;;;;;;;5.87;3.00;;;;;;;;;;5015881;28;89555;-65
2024/01/21 14:53:39;;;;;;;7.53;3.37;;;;;;;;;;5012747;28;87731;-64